createdAt,value
2022-11-17T00:00:21.526Z,99.12
2022-11-17T00:01:30.731Z,100.09
2022-11-17T00:02:38.884Z,99.6
2022-11-17T00:03:47.111Z,99.6
2022-11-17T00:04:56.242Z,99.12
2022-11-17T00:06:05.416Z,98.38
2022-11-17T00:07:14.583Z,99.12
2022-11-17T00:08:23.756Z,98.38
2022-11-17T00:09:32.929Z,98.63
2022-11-17T00:10:42.100Z,97.9
2022-11-17T00:11:50.318Z,99.6
2022-11-17T00:12:58.477Z,100.09
2022-11-17T00:14:07.655Z,99.12
2022-11-17T00:16:26.006Z,100.58
2022-11-17T00:17:35.190Z,98.38
2022-11-17T00:18:44.344Z,97.16
2022-11-17T00:19:53.530Z,99.12
2022-11-17T00:21:02.692Z,98.63
2022-11-17T00:22:11.870Z,99.6
2022-11-17T00:23:21.038Z,98.14
2022-11-17T00:24:30.221Z,101.07
2022-11-17T00:25:39.376Z,102.05
2022-11-17T00:26:48.555Z,97.9
2022-11-17T00:27:56.773Z,101.07
2022-11-17T00:29:05.918Z,102.53
2022-11-17T00:30:15.090Z,101.31
2022-11-17T00:31:24.266Z,102.05
2022-11-17T00:32:33.451Z,102.53
2022-11-17T00:33:42.604Z,103.02
2022-11-17T00:34:51.780Z,102.53
2022-11-17T00:37:10.120Z,100.83
2022-11-17T00:38:19.295Z,99.36
2022-11-17T00:39:28.471Z,100.09
2022-11-17T00:40:37.737Z,102.05
2022-11-17T00:41:46.814Z,102.53
2022-11-17T00:42:55.012Z,103.27
2022-11-17T00:44:04.184Z,99.85
2022-11-17T00:45:13.376Z,99.36
2022-11-17T00:46:22.532Z,100.09
2022-11-17T00:47:31.710Z,99.6
2022-11-17T00:48:40.861Z,98.63
2022-11-17T00:49:50.037Z,97.16
2022-11-17T00:50:59.207Z,98.38
2022-11-17T00:52:08.388Z,102.78
2022-11-17T00:53:17.557Z,97.41
2022-11-17T00:54:26.750Z,96.92
2022-11-17T00:55:35.937Z,106.2
2022-11-17T00:56:45.149Z,96.92
2022-11-17T00:57:53.288Z,92.52
2022-11-17T00:59:02.452Z,93.5
2022-11-17T01:00:11.601Z,91.55
2022-11-17T01:01:20.798Z,90.57
2022-11-17T01:02:29.974Z,95.21
2022-11-17T01:03:39.131Z,89.11
2022-11-17T01:04:48.293Z,88.62
2022-11-17T01:05:57.468Z,90.57
2022-11-17T01:07:06.695Z,89.84
2022-11-17T01:08:15.895Z,90.82
2022-11-17T01:09:25.011Z,91.3
2022-11-17T01:10:34.155Z,88.37
2022-11-17T01:11:43.337Z,87.89
2022-11-17T01:12:51.521Z,87.64
2022-11-17T01:14:00.689Z,88.62
2022-11-17T01:15:09.860Z,88.37
2022-11-17T01:16:19.035Z,89.84
2022-11-17T01:17:28.202Z,88.37
2022-11-17T01:18:37.431Z,93.01
2022-11-17T01:19:46.553Z,89.11
2022-11-17T01:20:55.723Z,101.56
2022-11-17T01:22:04.911Z,94.97
2022-11-17T01:23:14.191Z,88.13
2022-11-17T01:24:23.270Z,87.64
2022-11-17T01:25:32.418Z,88.86
2022-11-17T01:26:41.585Z,90.33
2022-11-17T01:27:49.771Z,88.13
2022-11-17T01:28:58.961Z,87.4
2022-11-17T01:30:08.136Z,90.08
2022-11-17T01:31:17.299Z,87.64
2022-11-17T01:32:26.479Z,87.89
2022-11-17T01:33:35.636Z,88.62
2022-11-17T01:34:43.826Z,86.66
2022-11-17T01:35:53.015Z,89.11
2022-11-17T01:37:01.210Z,86.91
2022-11-17T01:38:10.375Z,86.18
2022-11-17T01:39:19.548Z,85.69
2022-11-17T01:40:28.735Z,87.15
2022-11-17T01:41:36.910Z,86.91
2022-11-17T01:42:45.100Z,86.66
2022-11-17T01:43:54.277Z,86.91
2022-11-17T01:45:03.451Z,86.66
2022-11-17T01:46:12.616Z,85.93
2022-11-17T01:47:21.801Z,88.13
2022-11-17T01:48:30.973Z,90.82
2022-11-17T01:49:40.145Z,87.4
2022-11-17T01:50:49.332Z,86.18
2022-11-17T01:51:58.468Z,86.66
2022-11-17T01:53:07.654Z,90.82
2022-11-17T01:55:26.001Z,89.59
2022-11-17T01:56:35.181Z,90.57
2022-11-17T01:57:44.335Z,89.84
2022-11-17T01:58:52.519Z,90.57
2022-11-17T02:00:01.711Z,89.35
2022-11-17T02:02:20.039Z,90.33
2022-11-17T02:03:28.234Z,94.23
2022-11-17T02:04:36.438Z,92.28
2022-11-17T02:05:45.599Z,90.08
2022-11-17T02:06:54.771Z,95.21
2022-11-17T02:08:03.939Z,97.9
2022-11-17T02:09:13.116Z,93.99
2022-11-17T02:10:22.325Z,95.21
2022-11-17T02:11:31.474Z,94.97
2022-11-17T02:12:40.679Z,95.94
2022-11-17T02:13:49.804Z,95.7
2022-11-17T02:14:59.008Z,94.97
2022-11-17T02:16:07.184Z,94.72
2022-11-17T02:17:15.374Z,99.36
2022-11-17T02:18:24.540Z,93.5
2022-11-17T02:19:33.712Z,93.75
2022-11-17T02:20:42.892Z,95.21
2022-11-17T02:21:52.147Z,93.75
2022-11-17T02:23:01.217Z,94.97
2022-11-17T02:24:10.403Z,94.97
2022-11-17T02:25:19.573Z,95.94
2022-11-17T02:26:28.742Z,96.43
2022-11-17T02:27:37.935Z,94.97
2022-11-17T02:28:47.087Z,93.01
2022-11-17T02:29:56.263Z,93.75
2022-11-17T02:31:05.521Z,93.01
2022-11-17T02:32:13.647Z,93.99
2022-11-17T02:33:22.801Z,95.45
2022-11-17T02:34:31.976Z,96.19
2022-11-17T02:35:41.146Z,92.52
2022-11-17T02:36:50.316Z,93.01
2022-11-17T02:37:59.554Z,97.41
2022-11-17T02:39:08.691Z,93.99
2022-11-17T02:40:17.830Z,95.45
2022-11-17T02:41:27.008Z,93.75
2022-11-17T02:42:36.207Z,95.21
2022-11-17T02:43:45.352Z,98.38
2022-11-17T02:44:54.519Z,93.75
2022-11-17T02:46:03.713Z,97.41
2022-11-17T02:47:11.892Z,94.72
2022-11-17T02:48:20.080Z,97.16
2022-11-17T02:49:28.275Z,92.04
2022-11-17T02:50:36.509Z,93.99
2022-11-17T02:51:45.653Z,100.83
2022-11-17T02:52:54.827Z,95.7
2022-11-17T02:54:03.992Z,93.5
2022-11-17T02:55:13.200Z,92.28
2022-11-17T02:56:22.327Z,93.5
2022-11-17T02:57:31.502Z,93.75
2022-11-17T02:58:40.683Z,92.28
2022-11-17T02:59:49.845Z,100.09
2022-11-17T03:00:59.013Z,92.77
2022-11-17T03:02:08.184Z,94.23
2022-11-17T03:03:17.416Z,93.01
2022-11-17T03:04:26.540Z,95.21
2022-11-17T03:05:34.733Z,95.94
2022-11-17T03:06:43.904Z,94.23
2022-11-17T03:07:53.061Z,92.04
2022-11-17T03:09:02.232Z,93.5
2022-11-17T03:10:11.426Z,93.5
2022-11-17T03:11:20.575Z,92.52
2022-11-17T03:12:29.801Z,93.26
2022-11-17T03:13:37.939Z,92.52
2022-11-17T03:14:46.169Z,93.5
2022-11-17T03:15:55.318Z,94.48
2022-11-17T03:17:04.558Z,102.53
2022-11-17T03:18:13.658Z,97.41
2022-11-17T03:19:22.824Z,101.31
2022-11-17T03:20:32.048Z,102.29
2022-11-17T03:21:41.170Z,104
2022-11-17T03:22:49.361Z,104.98
2022-11-17T03:23:58.590Z,105.46
2022-11-17T03:25:07.707Z,106.68
2022-11-17T03:26:16.965Z,108.64
2022-11-17T03:27:25.082Z,112.06
2022-11-17T03:28:33.273Z,113.52
2022-11-17T03:29:42.427Z,116.69
2022-11-17T03:30:51.617Z,114.5
2022-11-17T03:32:00.782Z,117.91
2022-11-17T03:33:10.012Z,114.01
2022-11-17T03:34:19.182Z,115.72
2022-11-17T03:35:28.319Z,112.3
2022-11-17T03:36:37.496Z,114.25
2022-11-17T03:40:04.994Z,116.21
2022-11-17T03:41:14.166Z,113.03
2022-11-17T03:42:22.356Z,114.99
2022-11-17T03:43:30.557Z,113.03
2022-11-17T03:44:39.719Z,111.81
2022-11-17T03:45:48.890Z,118.16
2022-11-17T03:46:58.060Z,113.76
2022-11-17T03:48:07.249Z,114.74
2022-11-17T03:50:25.586Z,118.16
2022-11-17T03:51:34.759Z,117.43
2022-11-17T03:53:53.147Z,115.72
2022-11-17T03:56:11.455Z,121.33
2022-11-17T03:57:20.614Z,118.89
2022-11-17T03:59:37.988Z,117.67
2022-11-17T04:00:46.177Z,117.18
2022-11-17T04:01:55.351Z,116.94
2022-11-17T04:03:03.535Z,119.87
2022-11-17T04:04:12.720Z,116.69
2022-11-17T04:05:21.894Z,119.38
2022-11-17T04:06:31.056Z,118.65
2022-11-17T04:07:40.233Z,119.87
2022-11-17T04:08:49.406Z,115.96
2022-11-17T04:09:58.574Z,117.67
2022-11-17T04:11:07.787Z,118.16
2022-11-17T04:12:16.970Z,116.45
2022-11-17T04:13:25.182Z,120.6
2022-11-17T04:14:33.401Z,119.38
2022-11-17T04:16:51.653Z,116.94
2022-11-17T04:18:00.827Z,117.18
2022-11-17T04:20:19.176Z,118.16
2022-11-17T04:21:28.335Z,117.91
2022-11-17T04:22:37.506Z,117.43
2022-11-17T04:23:46.767Z,116.45
2022-11-17T04:26:05.025Z,118.65
2022-11-17T04:27:14.208Z,115.23
2022-11-17T04:28:23.370Z,118.89
2022-11-17T04:29:31.573Z,119.38
2022-11-17T04:30:39.750Z,117.18
2022-11-17T04:31:48.937Z,117.67
2022-11-17T04:32:58.096Z,119.62
2022-11-17T04:34:07.267Z,116.45
2022-11-17T04:35:16.449Z,118.16
2022-11-17T04:36:25.621Z,118.16
2022-11-17T04:37:34.795Z,114.5
2022-11-17T04:38:43.967Z,118.16
2022-11-17T04:39:53.270Z,119.62
2022-11-17T04:41:02.310Z,117.67
2022-11-17T04:42:10.526Z,114.01
2022-11-17T04:43:18.692Z,112.79
2022-11-17T04:45:37.026Z,113.52
2022-11-17T04:47:55.408Z,116.94
2022-11-17T04:49:04.630Z,116.45
2022-11-17T04:50:13.734Z,120.11
2022-11-17T04:51:22.906Z,120.6
2022-11-17T04:52:32.068Z,122.55
2022-11-17T04:53:41.266Z,120.84
2022-11-17T04:54:50.414Z,119.87
2022-11-17T04:55:59.590Z,118.16
2022-11-17T04:57:07.801Z,119.62
2022-11-17T04:58:15.980Z,118.4
2022-11-17T04:59:25.189Z,120.6
2022-11-17T05:00:34.319Z,119.38
2022-11-17T05:01:43.492Z,119.38
2022-11-17T05:02:52.663Z,121.58
2022-11-17T05:04:01.858Z,119.62
2022-11-17T05:05:11.015Z,120.6
2022-11-17T05:06:20.187Z,122.8
2022-11-17T05:07:29.424Z,122.07
2022-11-17T05:08:38.529Z,121.58
2022-11-17T05:09:46.765Z,121.58
2022-11-17T05:10:54.957Z,118.89
2022-11-17T05:12:04.164Z,121.82
2022-11-17T05:13:13.353Z,120.84
2022-11-17T05:14:22.539Z,121.58
2022-11-17T05:15:31.604Z,121.09
2022-11-17T05:16:40.777Z,119.38
2022-11-17T05:17:49.962Z,120.36
2022-11-17T05:18:59.143Z,119.62
2022-11-17T05:20:08.296Z,121.09
2022-11-17T05:21:17.461Z,122.31
2022-11-17T05:22:25.692Z,120.84
2022-11-17T05:23:33.851Z,120.11
2022-11-17T05:24:43.023Z,121.82
2022-11-17T05:25:52.205Z,120.11
2022-11-17T05:27:01.366Z,122.07
2022-11-17T05:29:19.712Z,123.53
2022-11-17T05:30:28.891Z,122.31
2022-11-17T05:31:38.143Z,122.31
2022-11-17T05:32:47.229Z,118.16
2022-11-17T05:33:56.396Z,120.84
2022-11-17T05:35:05.564Z,120.84
2022-11-17T05:36:14.742Z,122.8
2022-11-17T05:37:23.917Z,119.38
2022-11-17T05:38:32.102Z,118.89
2022-11-17T05:39:41.262Z,119.62
2022-11-17T05:40:50.444Z,119.62
2022-11-17T05:41:59.682Z,121.58
2022-11-17T05:43:08.797Z,118.89
2022-11-17T05:44:17.973Z,122.07
2022-11-17T05:45:27.144Z,120.84
2022-11-17T05:46:36.372Z,121.58
2022-11-17T05:47:45.481Z,119.62
2022-11-17T05:48:54.662Z,122.07
2022-11-17T05:50:03.910Z,122.07
2022-11-17T05:51:13.055Z,121.58
2022-11-17T05:52:22.200Z,118.16
2022-11-17T05:54:39.539Z,118.89
2022-11-17T05:55:48.702Z,119.14
2022-11-17T05:58:07.054Z,121.09
2022-11-17T05:59:16.227Z,120.6
2022-11-17T06:00:25.398Z,120.11
2022-11-17T06:01:34.578Z,118.89
2022-11-17T06:02:43.745Z,121.58
2022-11-17T06:03:52.915Z,119.14
2022-11-17T06:05:02.089Z,119.38
2022-11-17T06:06:11.345Z,119.62
2022-11-17T06:07:20.514Z,121.09
2022-11-17T06:08:28.638Z,122.8
2022-11-17T06:09:37.818Z,118.4
2022-11-17T06:10:47.049Z,121.58
2022-11-17T06:11:56.134Z,121.58
2022-11-17T06:13:05.308Z,121.58
2022-11-17T06:14:14.491Z,119.62
2022-11-17T06:15:23.658Z,119.87
2022-11-17T06:16:32.830Z,123.29
2022-11-17T06:17:42.001Z,120.36
2022-11-17T06:18:51.178Z,118.89
2022-11-17T06:20:00.375Z,118.89
2022-11-17T06:21:09.533Z,116.45
2022-11-17T06:22:18.693Z,114.25
2022-11-17T06:23:26.873Z,109.37
2022-11-17T06:24:36.060Z,109.86
2022-11-17T06:25:45.228Z,114.25
2022-11-17T06:26:54.401Z,114.74
2022-11-17T06:28:03.583Z,118.16
2022-11-17T06:29:12.752Z,112.06
2022-11-17T06:30:21.918Z,115.23
2022-11-17T06:31:31.104Z,116.94
2022-11-17T06:32:40.268Z,116.94
2022-11-17T06:33:49.431Z,119.38
2022-11-17T06:34:58.607Z,119.87
2022-11-17T06:36:07.774Z,117.18
2022-11-17T06:37:17.005Z,117.67
2022-11-17T06:38:25.136Z,114.25
2022-11-17T06:39:34.317Z,115.72
2022-11-17T06:41:52.652Z,115.96
2022-11-17T06:43:01.829Z,113.52
2022-11-17T06:46:29.392Z,114.25
2022-11-17T06:47:37.574Z,114.25
2022-11-17T06:48:45.732Z,113.03
2022-11-17T06:49:54.928Z,116.94
2022-11-17T06:51:04.078Z,118.89
2022-11-17T06:52:13.280Z,115.72
2022-11-17T06:53:22.419Z,117.18
2022-11-17T06:54:31.697Z,114.25
2022-11-17T06:55:40.806Z,116.94
2022-11-17T06:56:49.980Z,114.74
2022-11-17T06:57:59.172Z,117.43
2022-11-17T06:59:08.275Z,118.16
2022-11-17T07:00:16.537Z,116.21
2022-11-17T07:01:24.675Z,113.52
2022-11-17T07:02:33.900Z,118.16
2022-11-17T07:03:43.010Z,115.47
2022-11-17T07:04:52.168Z,114.99
2022-11-17T07:06:01.366Z,116.69
2022-11-17T07:07:10.535Z,114.01
2022-11-17T07:08:19.731Z,118.89
2022-11-17T07:09:28.882Z,116.94
2022-11-17T07:10:38.067Z,116.69
2022-11-17T07:11:47.274Z,115.47
2022-11-17T07:12:56.400Z,116.45
2022-11-17T07:14:05.577Z,116.45
2022-11-17T07:15:13.853Z,115.72
2022-11-17T07:16:22.932Z,114.99
2022-11-17T07:17:32.194Z,112.79
2022-11-17T07:18:41.334Z,115.96
2022-11-17T07:19:50.544Z,111.81
2022-11-17T07:20:59.626Z,112.3
2022-11-17T07:22:08.793Z,109.13
2022-11-17T07:23:17.962Z,107.91
2022-11-17T07:24:26.166Z,110.35
2022-11-17T07:25:34.452Z,126.95
2022-11-17T07:26:43.558Z,133.78
2022-11-17T07:27:52.777Z,109.13
2022-11-17T07:29:01.917Z,110.1
2022-11-17T07:30:11.125Z,121.82
2022-11-17T07:31:20.216Z,114.74
2022-11-17T07:32:29.444Z,111.08
2022-11-17T07:33:38.612Z,127.68
2022-11-17T07:34:47.745Z,125.73
2022-11-17T07:35:56.895Z,125.48
2022-11-17T07:37:06.096Z,114.5
2022-11-17T07:38:15.248Z,112.79
2022-11-17T07:39:24.422Z,129.15
2022-11-17T07:40:32.616Z,130.12
2022-11-17T07:41:41.786Z,115.96
2022-11-17T07:42:49.998Z,133.78
2022-11-17T07:43:58.168Z,130.37
2022-11-17T07:45:07.346Z,121.09
2022-11-17T07:46:16.519Z,122.07
2022-11-17T07:47:25.685Z,122.07
2022-11-17T07:48:34.858Z,120.84
2022-11-17T07:49:44.030Z,118.65
2022-11-17T07:50:53.252Z,125.97
2022-11-17T07:52:02.381Z,128.17
2022-11-17T07:53:11.550Z,127.68
2022-11-17T07:54:20.729Z,121.33
2022-11-17T07:55:29.903Z,120.6
2022-11-17T07:56:39.068Z,120.36
2022-11-17T07:57:48.269Z,119.38
2022-11-17T07:58:56.428Z,118.16
2022-11-17T08:00:05.624Z,113.03
2022-11-17T08:01:14.773Z,114.74
2022-11-17T08:02:23.978Z,116.21
2022-11-17T08:04:42.409Z,118.89
2022-11-17T08:05:51.465Z,119.62
2022-11-17T08:07:00.633Z,119.87
2022-11-17T08:09:18.012Z,121.82
2022-11-17T08:10:27.219Z,120.84
2022-11-17T08:11:35.494Z,119.14
2022-11-17T08:12:44.548Z,120.11
2022-11-17T08:13:52.802Z,120.11
2022-11-17T08:15:01.940Z,120.11
2022-11-17T08:16:11.092Z,122.55
2022-11-17T08:17:20.443Z,120.84
2022-11-17T08:19:37.614Z,119.62
2022-11-17T08:20:45.891Z,122.55
2022-11-17T08:21:53.992Z,119.62
2022-11-17T08:23:03.252Z,119.62
2022-11-17T08:24:12.347Z,118.16
2022-11-17T08:25:21.517Z,130.12
2022-11-17T08:26:30.778Z,119.38
2022-11-17T08:27:39.870Z,120.36
2022-11-17T08:28:49.035Z,123.04
2022-11-17T08:29:58.215Z,118.89
2022-11-17T08:31:07.431Z,119.62
2022-11-17T08:32:16.545Z,120.6
2022-11-17T08:33:25.736Z,120.6
2022-11-17T08:34:34.955Z,120.84
2022-11-17T08:35:44.138Z,119.87
2022-11-17T08:36:52.315Z,120.11
2022-11-17T08:38:01.488Z,120.84
2022-11-17T08:39:10.607Z,119.62
2022-11-17T08:40:19.772Z,118.16
2022-11-17T08:41:29.109Z,122.55
2022-11-17T08:42:38.179Z,119.62
2022-11-17T08:43:47.350Z,120.6
2022-11-17T08:44:56.537Z,120.6
2022-11-17T08:46:05.640Z,119.87
2022-11-17T08:47:14.816Z,118.89
2022-11-17T08:48:23.976Z,120.84
2022-11-17T08:50:42.328Z,117.43
2022-11-17T08:51:50.555Z,119.87
2022-11-17T08:52:59.704Z,121.33
2022-11-17T08:55:17.064Z,118.16
2022-11-17T08:57:34.421Z,118.16
2022-11-17T08:58:42.653Z,114.99
2022-11-17T08:59:50.808Z,113.03
2022-11-17T09:00:59.983Z,113.03
2022-11-17T09:02:09.149Z,115.47
2022-11-17T09:03:18.506Z,115.23
2022-11-17T09:04:27.495Z,116.69
2022-11-17T09:05:36.853Z,120.6
2022-11-17T09:06:46.018Z,119.62
2022-11-17T09:07:55.242Z,118.16
2022-11-17T09:09:04.431Z,119.62
2022-11-17T09:10:13.423Z,119.14
2022-11-17T09:11:21.551Z,120.11
2022-11-17T09:12:29.739Z,119.87
2022-11-17T09:14:48.083Z,114.99
2022-11-17T09:15:57.247Z,115.23
2022-11-17T09:17:06.431Z,115.72
2022-11-17T09:18:15.603Z,116.45
2022-11-17T09:19:24.780Z,115.23
2022-11-17T09:20:33.948Z,132.56
2022-11-17T09:21:43.117Z,116.45
2022-11-17T09:22:52.293Z,119.62
2022-11-17T09:24:01.459Z,116.94
2022-11-17T09:25:10.635Z,115.96
2022-11-17T09:26:19.812Z,116.21
2022-11-17T09:27:28.000Z,114.5
2022-11-17T09:28:37.182Z,114.99
2022-11-17T09:29:46.390Z,116.69
2022-11-17T09:30:55.633Z,115.23
2022-11-17T09:32:04.852Z,116.21
2022-11-17T09:33:14.039Z,116.69
2022-11-17T09:35:32.197Z,118.16
2022-11-17T09:36:41.371Z,117.67
2022-11-17T09:37:50.576Z,116.94
2022-11-17T09:38:59.725Z,120.11
2022-11-17T09:40:08.892Z,116.21
2022-11-17T09:41:18.070Z,119.62
2022-11-17T09:42:26.263Z,119.14
2022-11-17T09:44:44.609Z,116.45
2022-11-17T09:45:53.773Z,119.62
2022-11-17T09:48:12.126Z,115.47
2022-11-17T09:49:20.309Z,114.01
2022-11-17T09:50:28.499Z,114.74
2022-11-17T09:51:37.675Z,114.99
2022-11-17T09:52:46.851Z,116.21
2022-11-17T09:53:56.069Z,117.91
2022-11-17T09:55:05.364Z,114.99
2022-11-17T09:56:14.540Z,114.01
2022-11-17T09:57:23.638Z,116.69
2022-11-17T09:58:32.868Z,116.69
2022-11-17T09:59:41.874Z,115.96
2022-11-17T10:00:51.057Z,114.5
2022-11-17T10:01:59.259Z,114.25
2022-11-17T10:03:07.443Z,115.72
2022-11-17T10:04:16.600Z,114.01
2022-11-17T10:05:25.781Z,121.09
2022-11-17T10:06:34.947Z,118.16
2022-11-17T10:07:44.132Z,115.72
2022-11-17T10:08:53.293Z,114.74
2022-11-17T10:10:02.479Z,115.23
2022-11-17T10:11:11.651Z,115.72
2022-11-17T10:12:20.824Z,112.06
2022-11-17T10:13:29.999Z,110.59
2022-11-17T10:14:39.149Z,113.28
2022-11-17T10:15:48.433Z,125.48
2022-11-17T10:16:57.661Z,111.57
2022-11-17T10:18:05.814Z,112.06
2022-11-17T10:19:15.042Z,113.76
2022-11-17T10:20:24.053Z,112.3
2022-11-17T10:21:33.218Z,110.59
2022-11-17T10:22:42.385Z,111.32
2022-11-17T10:23:51.551Z,115.23
2022-11-17T10:25:00.723Z,109.61
2022-11-17T10:26:09.901Z,115.96
2022-11-17T10:27:19.100Z,108.88
2022-11-17T10:28:28.303Z,112.3
2022-11-17T10:29:37.500Z,110.59
2022-11-17T10:30:46.680Z,111.57
2022-11-17T10:31:55.789Z,109.86
2022-11-17T10:34:13.143Z,111.57
2022-11-17T10:35:22.326Z,110.35
2022-11-17T10:37:40.674Z,112.06
2022-11-17T10:38:48.858Z,110.35
2022-11-17T10:39:57.045Z,114.01
2022-11-17T10:41:06.216Z,116.69
2022-11-17T10:43:24.566Z,114.74
2022-11-17T10:44:33.726Z,118.65
2022-11-17T10:45:42.938Z,115.23
2022-11-17T10:46:52.262Z,113.76
2022-11-17T10:48:01.423Z,120.84
2022-11-17T10:50:19.602Z,121.82
2022-11-17T10:51:28.772Z,114.99
2022-11-17T10:52:37.949Z,115.47
2022-11-17T10:53:46.141Z,115.96
2022-11-17T10:54:54.328Z,114.5
2022-11-17T10:57:11.692Z,114.01
2022-11-17T10:58:19.890Z,115.96
2022-11-17T10:59:28.096Z,116.69
2022-11-17T11:00:37.250Z,116.21
2022-11-17T11:01:46.402Z,113.28
2022-11-17T11:02:55.629Z,114.99
2022-11-17T11:04:04.762Z,112.54
2022-11-17T11:05:13.947Z,117.91
2022-11-17T11:07:31.322Z,114.01
2022-11-17T11:08:40.483Z,115.96
2022-11-17T11:09:48.679Z,116.21
2022-11-17T11:10:57.837Z,115.47
2022-11-17T11:12:07.022Z,115.23
2022-11-17T11:13:16.183Z,119.38
2022-11-17T11:14:25.371Z,115.23
2022-11-17T11:15:34.541Z,114.74
2022-11-17T11:16:43.708Z,116.69
2022-11-17T11:17:52.876Z,115.72
2022-11-17T11:19:02.049Z,125.48
2022-11-17T11:20:11.231Z,128.9
2022-11-17T11:21:20.405Z,119.87
2022-11-17T11:22:29.568Z,115.72
2022-11-17T11:23:37.763Z,117.43
2022-11-17T11:24:45.962Z,114.5
2022-11-17T11:25:55.126Z,114.01
2022-11-17T11:27:04.297Z,113.28
2022-11-17T11:28:13.466Z,113.03
2022-11-17T11:29:22.645Z,109.61
2022-11-17T11:30:31.835Z,109.13
2022-11-17T11:31:40.985Z,110.35
2022-11-17T11:32:50.166Z,112.06
2022-11-17T11:33:59.339Z,111.57
2022-11-17T11:35:08.509Z,115.23
2022-11-17T11:36:17.685Z,110.35
2022-11-17T11:37:26.856Z,131.83
2022-11-17T11:38:36.025Z,113.03
2022-11-17T11:39:45.201Z,115.47
2022-11-17T11:40:53.385Z,114.01
2022-11-17T11:42:02.565Z,116.21
2022-11-17T11:43:11.739Z,116.69
2022-11-17T11:44:20.905Z,117.91
2022-11-17T11:45:30.070Z,119.87
2022-11-17T11:46:39.247Z,121.58
2022-11-17T11:47:48.429Z,119.38
2022-11-17T11:48:57.591Z,117.91
2022-11-17T11:50:06.769Z,118.16
2022-11-17T11:51:15.943Z,116.69
2022-11-17T11:52:25.129Z,113.52
2022-11-17T11:53:34.289Z,114.5
2022-11-17T11:54:43.470Z,114.01
2022-11-17T11:55:51.657Z,117.43
2022-11-17T11:57:00.829Z,116.45
2022-11-17T11:58:09.999Z,116.21
2022-11-17T11:59:19.177Z,117.91
2022-11-17T12:00:28.346Z,118.65
2022-11-17T12:01:37.513Z,115.23
2022-11-17T12:02:46.690Z,119.62
2022-11-17T12:03:55.854Z,116.69
2022-11-17T12:05:05.031Z,117.91
2022-11-17T12:06:14.218Z,119.14
2022-11-17T12:07:23.384Z,116.21
2022-11-17T12:08:32.553Z,113.28
2022-11-17T12:09:41.722Z,112.06
2022-11-17T12:10:50.100Z,112.06
2022-11-17T12:11:59.103Z,110.59
2022-11-17T12:13:08.275Z,109.61
2022-11-17T12:14:17.440Z,110.59
2022-11-17T12:15:26.597Z,113.52
2022-11-17T12:16:35.782Z,109.37
2022-11-17T12:17:44.938Z,110.59
2022-11-17T12:18:54.125Z,109.61
2022-11-17T12:20:03.331Z,109.37
2022-11-17T12:21:12.463Z,109.86
2022-11-17T12:22:21.641Z,111.08
2022-11-17T12:23:30.804Z,109.86
2022-11-17T12:24:39.982Z,109.13
2022-11-17T12:25:48.164Z,111.08
2022-11-17T12:26:57.351Z,109.13
2022-11-17T12:28:06.547Z,109.37
2022-11-17T12:29:15.696Z,109.86
2022-11-17T12:30:24.855Z,108.15
2022-11-17T12:31:33.065Z,108.39
2022-11-17T12:32:41.245Z,108.39
2022-11-17T12:33:50.423Z,107.91
2022-11-17T12:34:59.714Z,107.17
2022-11-17T12:36:08.762Z,108.15
2022-11-17T12:37:17.927Z,108.64
2022-11-17T12:38:26.135Z,109.37
2022-11-17T12:39:34.323Z,113.76
2022-11-17T12:40:43.494Z,108.39
2022-11-17T12:41:52.672Z,109.13
2022-11-17T12:43:01.834Z,109.61
2022-11-17T12:44:11.010Z,112.79
2022-11-17T12:45:20.193Z,108.64
2022-11-17T12:46:29.354Z,109.13
2022-11-17T12:47:38.530Z,112.06
2022-11-17T12:48:47.698Z,118.4
2022-11-17T12:49:56.872Z,110.35
2022-11-17T12:51:06.059Z,114.74
2022-11-17T12:52:15.212Z,111.57
2022-11-17T12:53:24.394Z,112.54
2022-11-17T12:54:32.577Z,117.43
2022-11-17T12:55:41.756Z,108.39
2022-11-17T12:56:50.924Z,105.22
2022-11-17T12:58:00.104Z,107.66
2022-11-17T12:59:09.298Z,108.15
2022-11-17T13:00:18.440Z,109.61
2022-11-17T13:01:27.608Z,122.07
2022-11-17T13:02:36.784Z,110.59
2022-11-17T13:03:45.957Z,104.98
2022-11-17T13:04:55.123Z,105.95
2022-11-17T13:06:04.306Z,112.54
2022-11-17T13:07:13.477Z,110.35
2022-11-17T13:08:22.640Z,108.15
2022-11-17T13:09:30.834Z,105.95
2022-11-17T13:11:49.171Z,104
2022-11-17T13:12:58.503Z,103.75
2022-11-17T13:14:07.646Z,122.07
2022-11-17T13:15:16.773Z,104
2022-11-17T13:16:25.887Z,119.38
2022-11-17T13:17:35.038Z,105.46
2022-11-17T13:18:44.216Z,107.66
2022-11-17T13:19:53.596Z,105.22
2022-11-17T13:21:02.700Z,104.73
2022-11-17T13:22:11.912Z,105.46
2022-11-17T13:23:21.006Z,107.91
2022-11-17T13:24:29.304Z,118.89
2022-11-17T13:25:38.479Z,106.44
2022-11-17T13:26:47.421Z,108.88
2022-11-17T13:27:56.767Z,111.57
2022-11-17T13:29:05.953Z,118.89
2022-11-17T13:30:15.143Z,111.32
2022-11-17T13:31:23.311Z,110.1
2022-11-17T13:32:31.324Z,109.13
2022-11-17T13:33:40.657Z,114.5
2022-11-17T13:34:49.882Z,115.96
2022-11-17T13:35:57.995Z,114.74
2022-11-17T13:37:06.271Z,111.32
2022-11-17T13:38:15.426Z,117.43
2022-11-17T13:39:24.551Z,112.54
2022-11-17T13:40:33.811Z,115.96
2022-11-17T13:41:42.934Z,114.99
2022-11-17T13:42:52.056Z,120.84
2022-11-17T13:44:01.135Z,117.67
2022-11-17T13:45:10.330Z,116.69
2022-11-17T13:46:19.434Z,117.18
2022-11-17T13:47:28.683Z,115.96
2022-11-17T13:48:37.778Z,118.89
2022-11-17T13:49:47.076Z,108.39
2022-11-17T13:50:56.174Z,112.06
2022-11-17T13:52:04.299Z,107.17
2022-11-17T13:53:13.695Z,110.35
2022-11-17T13:54:22.742Z,111.32
2022-11-17T13:56:41.057Z,112.54
2022-11-17T13:57:50.191Z,111.57
2022-11-17T13:58:59.468Z,113.28
2022-11-17T14:00:08.595Z,113.03
2022-11-17T14:01:16.822Z,116.45
2022-11-17T14:02:24.891Z,110.1
2022-11-17T14:03:34.089Z,112.54
2022-11-17T14:04:42.262Z,113.28
2022-11-17T14:05:50.605Z,112.54
2022-11-17T14:06:59.702Z,114.5
2022-11-17T14:08:08.847Z,119.38
2022-11-17T14:09:17.962Z,114.5
2022-11-17T14:10:27.159Z,112.79
2022-11-17T14:11:36.359Z,111.57
2022-11-17T14:12:45.522Z,111.57
2022-11-17T14:13:54.701Z,111.08
2022-11-17T14:15:03.830Z,111.08
2022-11-17T14:16:13.124Z,107.17
2022-11-17T14:17:22.279Z,112.3
2022-11-17T14:18:31.422Z,111.32
2022-11-17T14:19:40.517Z,110.1
2022-11-17T14:20:48.718Z,112.06
2022-11-17T14:21:57.881Z,111.81
2022-11-17T14:23:07.056Z,112.54
2022-11-17T14:24:16.220Z,112.06
2022-11-17T14:25:25.480Z,115.96
2022-11-17T14:26:34.680Z,112.06
2022-11-17T14:27:43.876Z,104.73
2022-11-17T14:28:52.923Z,106.44
2022-11-17T14:30:02.090Z,107.66
2022-11-17T14:31:11.364Z,104.73
2022-11-17T14:32:20.714Z,120.6
2022-11-17T14:33:29.750Z,107.17
2022-11-17T14:34:39.002Z,108.15
2022-11-17T14:35:47.206Z,106.68
2022-11-17T14:36:56.284Z,106.68
2022-11-17T14:38:05.486Z,107.42
2022-11-17T14:39:14.680Z,106.68
2022-11-17T14:40:23.711Z,109.86
2022-11-17T14:41:32.998Z,104
2022-11-17T14:42:42.058Z,106.44
2022-11-17T14:43:51.394Z,113.52
2022-11-17T14:45:00.381Z,105.71
2022-11-17T14:46:09.528Z,121.58
2022-11-17T14:47:18.792Z,111.57
2022-11-17T14:48:27.942Z,109.86
2022-11-17T14:49:37.076Z,116.21
2022-11-17T14:50:45.231Z,112.3
2022-11-17T14:53:03.629Z,119.62
2022-11-17T14:54:12.875Z,110.1
2022-11-17T14:55:22.007Z,111.81
2022-11-17T14:56:31.313Z,110.59
2022-11-17T14:57:40.513Z,110.83
2022-11-17T14:58:49.617Z,111.08
2022-11-17T14:59:58.813Z,115.72
2022-11-17T15:01:07.017Z,109.61
2022-11-17T15:02:16.169Z,110.1
2022-11-17T15:03:25.294Z,110.59
2022-11-17T15:04:34.608Z,113.76
2022-11-17T15:05:43.675Z,111.32
2022-11-17T15:06:52.858Z,111.08
2022-11-17T15:08:02.051Z,111.81
2022-11-17T15:09:11.187Z,112.3
2022-11-17T15:10:20.182Z,112.3
2022-11-17T15:11:29.525Z,112.79
2022-11-17T15:12:38.721Z,112.3
2022-11-17T15:13:47.929Z,109.86
2022-11-17T15:14:57.093Z,109.13